Extreme weather reports worldwide

Low visibility

Station
 
Location
 
Name
 
Wind
Knots
Gust
Knots
Vis
SM
Temp/Dew
C
Baro
inHg
METAR
 
KMWN 32 39 0 -13/-13 KMWN 280852Z 20032G39KT 0SM FZFG DRSN VV000 M13/M13 RMK VRY LGT ICG
LIRT 4 0 -1/-3 29.82 LIRT 280755Z 31004KT 0000 FZFG VV/// M01/M03 Q1010 RMK MON INVIS VAL INVIS VIS MIN 0000
LIBQ 0 / LIBQ 280755Z /////KT 0000 FZFG VV/// ///// Q////
OXB GGOV Bissau, GW Osvaldo Vieira International Airport 2 0.06 21/21 29.85 GGOV 280800Z 04002KT 0100 R03/0200 R21/0200 FG NSC 21/21 Q1011 NOSIG
EGOM Spadeadam, GB RAF Spadeadam 9 0.09 3/3 30.35 EGOM 280820Z AUTO 26009KT 0150 FG OVC001/// 03/03 Q1028

Station
 
Location
 
Name
 
Wind
Knots
Gust
Knots
Vis
SM
Temp/Dew
C
Baro
inHg
METAR
 
YKS UEEE Yakutsk, RU Yakutsk Airport 0 0.16 -47/-51 29.94 UEEE 280830Z 00000MPS 0250 R23L/0700N FG NSC M47/M51 Q1014 R23L/490150 NOSIG RMK QFE752
DYR UHMA Anadyr, RU Ugolny Airport 27 0.19 -5/-6 29.88 UHMA 280800Z 10014MPS 0300 0200N R01/0800 -SN BLSN VV006 M05/M06 Q1012 RESN R01/////// NOSIG RMK MID 11016G19MPS END R01/11015G20MPS QFE755/1007
CQD OIFS Shahrekord, IR Shahrekord Airport 2 0.19 -8/-8 30.18 OIFS 280800Z 13002KT 0300 FZFG VV020 M08/M08 Q1022
PAUT Akutan, US Akun Airport 5 0.25 2/2 30.31 PAUT 280855Z AUTO 11005KT 1/4SM FG OVC002 02/02 A3031 RMK AO2
KRVF 31 0.25 -5/-6 29.80 KRVF 280855Z AUTO 03031KT 1/4SM SN OVC003 M05/M06 A2980 RMK AO2
KIKG Kingsville, US Kleberg County Airport 0 0.25 13/13 30.10 KIKG 280855Z AUTO 00000KT 1/4SM FG OVC003 13/13 A3010 RMK AO2 T01300130
STS KSTS Santa Rosa, US Charles M. Schulz Sonoma County Airport 0 0.25 3/2 30.05 KSTS 280853Z AUTO 00000KT 1/4SM FG VV001 03/03 A3005 RMK AO2 SLP168 T00330028 58001
KMLP 0.25 -5/-8 29.73 KMLP 280853Z AUTO 1/4SM +SN VV003 M06/M08 A2973 RMK AO2 SLP104 P0018 60024 T10561083 56005
KCPW 13 18 0.25 -13/-14 29.90 KCPW 280835Z AUTO 22013G18KT 1/4SM SN OVC001 M13/M14 A2990 RMK AO2
NOC EIKN Charleston, IE Ireland West Knock Airport 8 0.25 6/6 30.47 EIKN 280830Z 33008KT 0400 FG BKN002 BKN003 06/06 Q1032 BECMG 9999 NSW BKN020
LIVF 4 0.25 0/-1 29.88 LIVF 280755Z 23004KT 0400 -SN FZFG VV/// M00/M01 Q1012 RMK MON INVIS VAL INVIS VIS MIN 0400
AOJ RJSA Aomori, JP Aomori Airport 12 0.31 -8/-9 29.65 RJSA 280838Z 24012KT 0500 R24/0800V1100D SHSN FEW003 BKN005 BKN015 M08/M09 Q1004 RMK 1ST003 6ST005 7CU015 A2966
XBJ OIMB Birjand, IR Birjand Airport 6 0.31 1/1 30.03 OIMB 280800Z 28006KT 0500 SN SCT015 FEW025CB BKN080 01/01 Q1017 A3005
BFS EGAA Belfast, GB Belfast International Airport 0 0.34 5/5 30.44 EGAA 280850Z AUTO 00000KT 0550 R25/0650N FG VV/// 05/05 Q1031
MDE SKRG Medellín, CO Jose Maria Córdova International Airport 2 0.37 12/12 30.21 SKRG 280900Z VRB02KT 0600 R01/0700U FG VV001 12/12 Q1023 BECMG FM1000 0800 VV001 RMK A3021
MLX LTAT Malatya, TR Malatya Erhaç Airport 4 0.37 0/0 30.12 LTAT 280850Z 35004KT 0600 R21/0900N R03/0900N SN FG SCT005 BKN030 OVC080 00/00 Q1020 NOSIG
IOA LGIO Ioannina, GR Ioannina Airport 0 0.37 2/2 29.88 LGIO 280850Z 00000KT 0600 FG VV003 02/02 Q1012
NTQ RJNW Wajima, JP Noto Airport 2 0.37 -3/-3 29.85 RJNW 280800Z VRB02KT 0600 R25/0800V1900D SHSN VV003 M03/M03 Q1011
VAS LTAR Sivas, TR Sivas Nuri Demirağ Airport 15 0.43 -1/-2 29.91 LTAR 280850Z 16015KT 0700 R01/0800U R19/0700U -SN FZFG BKN003 BKN025 OVC070 M01/M02 Q1013 RESN
EGXZ Topcliffe, GB RAF Topcliffe 0.47 -3/-3 30.41 EGXZ 280820Z AUTO /////KT 0750 FG BKN001/// M03/M03 Q1030
KSMP 3 0.5 0/-1 30.00 KSMP 280856Z AUTO VRB03KT 1/2SM FZFG VV002 M01/M02 A3000 RMK AO2 SNE55 SLP182 P0002 60006 T10061017 58014
OFK KOFK Norfolk, US Karl Stefan Memorial Airport 12 20 0.5 -5/-7 29.91 KOFK 280856Z AUTO 07012G20KT 1/2SM SN FZFG VV009 M05/M07 A2991 RMK AO2 SLP146 P0009 60016 T10501072 55011
NQI KNQI Kingsville, US Kingsville Naval Air Station 0 0.5 14/14 30.09 KNQI 280856Z AUTO 00000KT 1/2SM FG VV003 14/14 A3009 RMK AO2 SLP184 T01440144 56022 $
KEKS Ennis, US Ennis Big Sky Airport 15 21 0.5 -5/-6 29.80 KEKS 280855Z AUTO 34015G21KT 1/2SM -SN OVC003 M05/M06 A2980 RMK AO2
YCY CYCY Clyde River, CA Clyde River Airport 22 0.5 -23/-26 29.39 CYCY 280854Z AUTO 31022KT 1/2SM SN BLSN M23/M26 A2939 RMK CLD MISG SLP958
JNU PAJN Juneau, US Juneau International Airport 0 0.5 0/0 30.61 PAJN 280853Z 00000KT 1/2SM R08/6000VP6000FT FG VV002 01/01 A3061 RMK AO2 SLP366 T00060006 400330006 51012 $
ONL KONL O'Neill, US The O'Neill Municipal John L Baker Field 15 0.5 -5/-7 29.89 KONL 280835Z AUTO 07015KT 1/2SM +SN OVC005 M06/M07 A2989 RMK AO2 P0001 T10571070
BBU LRBS Bucharest, RO Băneasa International Airport 3 0.5 0/0 29.97 LRBS 280830Z 29003KT 240V340 0800 R25/1300N SN FG FEW003 BKN004 OVC018 00/M00 Q1015 NOSIG
SNN EINN Shannon, IE Shannon Airport 6 0.5 4/4 30.50 EINN 280830Z 12006KT 0800 R24/1700 R06/P2000 FG BKN001 OVC002 04/04 Q1033 BECMG 4000 BKN004
TJH RJBT Toyooka, JP Konotori Tajima Airport 4 0.5 0/-2 29.88 RJBT 280815Z 28004KT 220V330 0800 SHSN FEW000 SCT005 BKN010 M00/M02 Q1012 RMK 1ST000 3ST005 5CU010 A2990
LOAV Bad Vöslau, AT Vöslau Airport 12 0.5 -1/-1 LOAV 280800Z 33012KT 0800 SN VV009 M01/M01
LYVR RS Vršac International Airport 2 0.56 0/0 30.03 LYVR 280830Z AUTO VRB02KT 0900 R19/1100U R01/1100U -SN FG BKN001/// OVC004/// 00/00 Q1017
VPN BIVO Vopnafjörður, IS Vopnafjörður Airport 4 0.62 -1/-1 29.79 BIVO 280900Z 36004KT 1000 -SHSN VV003 M01/M01 Q1009
TGM LRTM Târgu Mureş, RO Transilvania Târgu Mureş International Airport 0 0.62 0/0 29.97 LRTM 280830Z 00000KT 1000 0700W R07/0400N -SN PRFG BR FEW003 BKN015 00/M00 Q1015
TCE LRTC Tulcea, RO Tulcea Airport 19 0.62 -1/-1 29.85 LRTC 280830Z 34019KT 1000 R34/1300U SN BLSN VV005 M01/M01 Q1011
OTP LROP Bucharest, RO Henri Coandă International Airport 4 0.62 0/0 29.97 LROP 280830Z 29004KT 1000 R26L/1300D R26R/1300N -SN BR BKN004 OVC021 00/00 Q1015 NOSIG
MRU FIMP Port Louis, MU Sir Seewoosagur Ramgoolam International Airport 3 0.62 26/25 29.85 FIMP 280800Z VRB03KT 1000 SHRA FEW006 FEW013CB BKN014 BKN050 26/25 Q1011
YHK CYHK Gjoa Haven, CA Gjoa Haven Airport 22 0.63 -30/-34 29.72 CYHK 280816Z AUTO 33022KT 5/8SM BLSN VV003 M30/M34 A2972 RMK SLP074
YCB CYCB Cambridge Bay, CA Cambridge Bay Airport 13 21 0.63 -28/-31 30.10 CYCB 280800Z 35013G21KT 5/8SM -SN BLSN FEW008 SCT013 BKN025 M28/M31 A3010 RMK BLSN1SF1SC1SC2 SLP201
EPA SADP El Palomar, AR El Palomar Airport 0 0.68 19/18 29.91 SADP 280848Z 00000KT 1100 R17/1800 MIFG BR NSC 19/18 Q1013
WLK PASK Selawik, US Selawik Airport 17 0.75 -12/-14 30.53 PASK 280856Z AUTO 07017KT 3/4SM -SN BR OVC007 M13/M14 A3053 RMK AO2 PK WND 07027/0810 CIG 007V011 SLP337 P0000 60000 T11281144 411281278 58016 FZRANO
GST PAGS Gustavus, US Gustavus Airport 3 0.75 -1/-2 30.64 PAGS 280856Z AUTO 03003KT 3/4SM BR OVC002 M02/M02 A3064 RMK AO2 SLP373 T10171022 400441022 51011 FZRANO RVRNO
BKC PABL Buckland, US Buckland Airport 27 32 0.75 -12/-15 30.42 PABL 280856Z AUTO 11027G32KT 3/4SM -SN BR BKN032 M13/M15 A3042 RMK AO2 PK WND 10032/0851 SLP304 P0000 60000 T11281150 58037 FZRANO $
KQDG 9 16 0.75 -5/-8 29.61 KQDG 280855Z AUTO 26009G16KT 1200 -SN BR VV011 M06/M08 A2961 RMK AO2 VIS 1200V3000 SNB0758 CIG 011V021 SLP029 P0000 60000 T10591080 55013 RVRNO $
KBKS Falfurrias, US Brooks County Airport 0 0.75 12/12 30.08 KBKS 280855Z AUTO 00000KT 3/4SM BR VV002 13/13 A3008 RMK AO2 SLP145 T01290129 $